sensor_id;sensor_type;location;lat;lon;timestamp;pressure;altitude;pressure_sealevel;temperature;humidity
7888;BME280;3989;48.810;9.208;2022-09-01T00:01:34;99012.09;;;14.40;nan
7888;BME280;3989;48.810;9.208;2022-09-01T00:04:03;98972.16;;;14.03;nan
7888;BME280;3989;48.810;9.208;2022-09-01T00:06:35;99005.38;;;14.30;nan
7888;BME280;3989;48.810;9.208;2022-09-01T00:09:05;98915.84;;;13.75;nan
7888;BME280;3989;48.810;9.208;2022-09-01T00:11:32;99020.66;;;14.29;nan
7888;BME280;3989;48.810;9.208;2022-09-01T00:14:01;99033.06;;;14.30;nan
7888;BME280;3989;48.810;9.208;2022-09-01T00:16:29;99019.19;;;14.27;nan
7888;BME280;3989;48.810;9.208;2022-09-01T00:18:56;98890.16;;;13.59;nan
7888;BME280;3989;48.810;9.208;2022-09-01T00:21:25;99003.91;;;14.27;nan
7888;BME280;3989;48.810;9.208;2022-09-01T00:23:54;98981.75;;;14.18;nan
7888;BME280;3989;48.810;9.208;2022-09-01T00:26:21;98912.50;;;13.66;nan
7888;BME280;3989;48.810;9.208;2022-09-01T00:28:48;99020.72;;;14.36;nan
7888;BME280;3989;48.810;9.208;2022-09-01T00:31:16;98852.59;;;13.32;nan
7888;BME280;3989;48.810;9.208;2022-09-01T00:33:44;99012.75;;;14.21;nan
7888;BME280;3989;48.810;9.208;2022-09-01T00:36:12;98905.47;;;13.65;nan
7888;BME280;3989;48.810;9.208;2022-09-01T00:38:39;98759.47;;;12.63;nan
7888;BME280;3989;48.810;9.208;2022-09-01T00:41:10;98941.53;;;13.91;nan
7888;BME280;3989;48.810;9.208;2022-09-01T00:43:40;98844.78;;;13.30;nan
7888;BME280;3989;48.810;9.208;2022-09-01T00:46:11;98885.56;;;13.53;nan
7888;BME280;3989;48.810;9.208;2022-09-01T00:48:38;98846.91;;;13.13;nan
7888;BME280;3989;48.810;9.208;2022-09-01T00:51:07;98935.78;;;13.66;nan
7888;BME280;3989;48.810;9.208;2022-09-01T00:53:35;98951.78;;;13.81;nan
7888;BME280;3989;48.810;9.208;2022-09-01T00:56:05;99015.97;;;14.10;nan
7888;BME280;3989;48.810;9.208;2022-09-01T00:58:35;99000.28;;;14.07;nan
7888;BME280;3989;48.810;9.208;2022-09-01T01:01:02;98845.63;;;13.09;nan
7888;BME280;3989;48.810;9.208;2022-09-01T01:03:30;98999.69;;;14.11;nan
7888;BME280;3989;48.810;9.208;2022-09-01T01:06:00;98996.34;;;14.09;nan
7888;BME280;3989;48.810;9.208;2022-09-01T01:08:35;98760.97;;;12.66;nan
7888;BME280;3989;48.810;9.208;2022-09-01T01:11:05;98740.19;;;12.47;nan
7888;BME280;3989;48.810;9.208;2022-09-01T01:13:49;98877.00;;;13.37;nan
7888;BME280;3989;48.810;9.208;2022-09-01T01:16:17;98921.19;;;13.47;nan
7888;BME280;3989;48.810;9.208;2022-09-01T01:18:46;98841.63;;;13.05;nan
7888;BME280;3989;48.810;9.208;2022-09-01T01:21:19;98851.72;;;13.03;nan
7888;BME280;3989;48.810;9.208;2022-09-01T01:26:46;99000.44;;;13.99;nan
7888;BME280;3989;48.810;9.208;2022-09-01T01:29:22;98993.63;;;14.03;nan
7888;BME280;3989;48.810;9.208;2022-09-01T01:31:59;98903.63;;;13.45;nan
7888;BME280;3989;48.810;9.208;2022-09-01T01:34:40;98753.56;;;12.47;nan
7888;BME280;3989;48.810;9.208;2022-09-01T01:37:12;98787.56;;;12.74;nan
7888;BME280;3989;48.810;9.208;2022-09-01T01:39:39;98849.59;;;12.99;nan
7888;BME280;3989;48.810;9.208;2022-09-01T01:42:12;98921.84;;;13.49;nan
7888;BME280;3989;48.810;9.208;2022-09-01T01:44:40;98778.97;;;12.57;nan
7888;BME280;3989;48.810;9.208;2022-09-01T01:47:11;98736.28;;;12.28;nan
7888;BME280;3989;48.810;9.208;2022-09-01T01:49:38;98987.66;;;13.80;nan
7888;BME280;3989;48.810;9.208;2022-09-01T01:52:08;98695.19;;;11.93;nan
7888;BME280;3989;48.810;9.208;2022-09-01T01:54:45;98828.91;;;12.65;nan
7888;BME280;3989;48.810;9.208;2022-09-01T01:57:16;98764.25;;;12.26;nan
7888;BME280;3989;48.810;9.208;2022-09-01T01:59:47;98993.97;;;13.65;nan
7888;BME280;3989;48.810;9.208;2022-09-01T02:02:23;98843.97;;;12.66;nan
7888;BME280;3989;48.810;9.208;2022-09-01T02:04:58;99002.41;;;13.62;nan
7888;BME280;3989;48.810;9.208;2022-09-01T02:07:30;98992.44;;;13.56;nan
7888;BME280;3989;48.810;9.208;2022-09-01T02:10:00;98919.63;;;12.96;nan
7888;BME280;3989;48.810;9.208;2022-09-01T02:12:29;98911.91;;;12.86;nan
7888;BME280;3989;48.810;9.208;2022-09-01T02:14:59;99009.63;;;13.41;nan
7888;BME280;3989;48.810;9.208;2022-09-01T02:17:30;98825.78;;;12.26;nan
7888;BME280;3989;48.810;9.208;2022-09-01T02:19:57;98999.47;;;13.36;nan
7888;BME280;3989;48.810;9.208;2022-09-01T02:22:26;98882.69;;;12.70;nan
7888;BME280;3989;48.810;9.208;2022-09-01T02:24:53;98918.09;;;12.87;nan
7888;BME280;3989;48.810;9.208;2022-09-01T02:27:20;99012.59;;;13.31;nan
7888;BME280;3989;48.810;9.208;2022-09-01T02:29:52;98998.56;;;13.29;nan
7888;BME280;3989;48.810;9.208;2022-09-01T02:32:19;98702.72;;;11.39;nan
7888;BME280;3989;48.810;9.208;2022-09-01T02:34:49;98792.91;;;11.96;nan
7888;BME280;3989;48.810;9.208;2022-09-01T02:37:19;98757.97;;;11.83;nan
7888;BME280;3989;48.810;9.208;2022-09-01T02:39:51;99003.75;;;13.31;nan
7888;BME280;3989;48.810;9.208;2022-09-01T02:42:21;98894.94;;;12.58;nan
7888;BME280;3989;48.810;9.208;2022-09-01T02:44:53;99011.81;;;13.16;nan
7888;BME280;3989;48.810;9.208;2022-09-01T02:47:20;98910.59;;;12.61;nan
7888;BME280;3989;48.810;9.208;2022-09-01T02:49:52;98895.38;;;12.61;nan
7888;BME280;3989;48.810;9.208;2022-09-01T02:52:19;98994.28;;;13.13;nan
7888;BME280;3989;48.810;9.208;2022-09-01T02:54:47;98853.22;;;12.28;nan
7888;BME280;3989;48.810;9.208;2022-09-01T02:57:16;98991.38;;;13.15;nan
7888;BME280;3989;48.810;9.208;2022-09-01T02:59:43;98882.84;;;12.47;nan
7888;BME280;3989;48.810;9.208;2022-09-01T03:02:13;98915.25;;;12.52;nan
7888;BME280;3989;48.810;9.208;2022-09-01T03:04:40;98969.19;;;12.85;nan
7888;BME280;3989;48.810;9.208;2022-09-01T03:07:14;98724.19;;;11.31;nan
7888;BME280;3989;48.810;9.208;2022-09-01T03:09:42;98723.91;;;11.41;nan
7888;BME280;3989;48.810;9.208;2022-09-01T03:12:14;98849.63;;;12.21;nan
7888;BME280;3989;48.810;9.208;2022-09-01T03:14:44;98983.56;;;12.99;nan
7888;BME280;3989;48.810;9.208;2022-09-01T03:17:10;98987.06;;;12.99;nan
7888;BME280;3989;48.810;9.208;2022-09-01T03:19:39;98979.88;;;13.00;nan
7888;BME280;3989;48.810;9.208;2022-09-01T03:22:08;98979.47;;;13.03;nan
7888;BME280;3989;48.810;9.208;2022-09-01T03:24:35;98969.16;;;13.00;nan
7888;BME280;3989;48.810;9.208;2022-09-01T03:27:03;98981.53;;;13.01;nan
7888;BME280;3989;48.810;9.208;2022-09-01T03:29:30;98988.19;;;13.05;nan
7888;BME280;3989;48.810;9.208;2022-09-01T03:31:56;98984.66;;;13.04;nan
7888;BME280;3989;48.810;9.208;2022-09-01T03:34:23;98988.56;;;13.02;nan
7888;BME280;3989;48.810;9.208;2022-09-01T03:36:52;98990.13;;;12.96;nan
7888;BME280;3989;48.810;9.208;2022-09-01T03:39:20;98980.25;;;12.97;nan
7888;BME280;3989;48.810;9.208;2022-09-01T03:41:46;98984.69;;;12.90;nan
7888;BME280;3989;48.810;9.208;2022-09-01T03:44:14;98990.31;;;12.95;nan
7888;BME280;3989;48.810;9.208;2022-09-01T03:46:41;98994.09;;;13.00;nan
7888;BME280;3989;48.810;9.208;2022-09-01T03:49:09;98982.38;;;13.01;nan
7888;BME280;3989;48.810;9.208;2022-09-01T03:51:39;98991.88;;;13.04;nan
7888;BME280;3989;48.810;9.208;2022-09-01T03:54:09;98990.78;;;12.98;nan
7888;BME280;3989;48.810;9.208;2022-09-01T03:56:36;98989.66;;;12.93;nan
7888;BME280;3989;48.810;9.208;2022-09-01T03:59:05;98978.88;;;12.86;nan
7888;BME280;3989;48.810;9.208;2022-09-01T04:01:32;98963.03;;;12.70;nan
7888;BME280;3989;48.810;9.208;2022-09-01T04:04:05;98985.44;;;12.84;nan
7888;BME280;3989;48.810;9.208;2022-09-01T04:06:32;98983.97;;;12.81;nan
7888;BME280;3989;48.810;9.208;2022-09-01T04:08:58;98963.22;;;12.69;nan
7888;BME280;3989;48.810;9.208;2022-09-01T04:11:29;98976.50;;;12.77;nan
7888;BME280;3989;48.810;9.208;2022-09-01T04:13:58;98980.00;;;12.77;nan
7888;BME280;3989;48.810;9.208;2022-09-01T04:16:26;98970.75;;;12.80;nan
7888;BME280;3989;48.810;9.208;2022-09-01T04:19:12;98992.25;;;12.86;nan
7888;BME280;3989;48.810;9.208;2022-09-01T04:21:45;98984.69;;;12.90;nan
7888;BME280;3989;48.810;9.208;2022-09-01T04:24:12;98994.22;;;12.92;nan
7888;BME280;3989;48.810;9.208;2022-09-01T04:26:41;98981.56;;;12.86;nan
7888;BME280;3989;48.810;9.208;2022-09-01T04:29:12;98997.69;;;12.93;nan
7888;BME280;3989;48.810;9.208;2022-09-01T04:31:39;99001.03;;;12.95;nan
7888;BME280;3989;48.810;9.208;2022-09-01T04:34:07;98993.00;;;12.95;nan
7888;BME280;3989;48.810;9.208;2022-09-01T04:36:38;99000.00;;;12.96;nan
7888;BME280;3989;48.810;9.208;2022-09-01T04:39:06;99001.28;;;13.00;nan
7888;BME280;3989;48.810;9.208;2022-09-01T04:41:35;99004.97;;;12.99;nan
7888;BME280;3989;48.810;9.208;2022-09-01T04:44:05;99000.47;;;12.99;nan
7888;BME280;3989;48.810;9.208;2022-09-01T04:46:34;98955.72;;;12.79;nan
7888;BME280;3989;48.810;9.208;2022-09-01T04:49:01;99002.59;;;13.04;nan
7888;BME280;3989;48.810;9.208;2022-09-01T04:51:34;98997.16;;;12.97;nan
7888;BME280;3989;48.810;9.208;2022-09-01T04:54:03;98996.38;;;13.03;nan
7888;BME280;3989;48.810;9.208;2022-09-01T04:56:33;98988.72;;;13.00;nan
7888;BME280;3989;48.810;9.208;2022-09-01T04:59:00;98980.88;;;12.99;nan
7888;BME280;3989;48.810;9.208;2022-09-01T05:01:33;98993.09;;;13.01;nan
7888;BME280;3989;48.810;9.208;2022-09-01T05:04:08;98997.22;;;13.04;nan
7888;BME280;3989;48.810;9.208;2022-09-01T05:06:39;98997.50;;;13.09;nan
7888;BME280;3989;48.810;9.208;2022-09-01T05:09:07;98988.66;;;13.08;nan
7888;BME280;3989;48.810;9.208;2022-09-01T05:11:36;98985.59;;;13.11;nan
7888;BME280;3989;48.810;9.208;2022-09-01T05:14:03;98993.97;;;13.23;nan
7888;BME280;3989;48.810;9.208;2022-09-01T05:16:33;98986.09;;;13.22;nan
7888;BME280;3989;48.810;9.208;2022-09-01T05:19:02;98998.38;;;13.31;nan
7888;BME280;3989;48.810;9.208;2022-09-01T05:21:29;98997.78;;;13.35;nan
7888;BME280;3989;48.810;9.208;2022-09-01T05:23:57;98993.81;;;13.31;nan
7888;BME280;3989;48.810;9.208;2022-09-01T05:26:26;99006.09;;;13.40;nan
7888;BME280;3989;48.810;9.208;2022-09-01T05:28:56;99001.75;;;13.39;nan
7888;BME280;3989;48.810;9.208;2022-09-01T05:31:24;99005.50;;;13.45;nan
7888;BME280;3989;48.810;9.208;2022-09-01T05:33:53;99014.66;;;13.50;nan
7888;BME280;3989;48.810;9.208;2022-09-01T05:36:22;98975.91;;;13.32;nan
7888;BME280;3989;48.810;9.208;2022-09-01T05:38:49;99006.91;;;13.62;nan
7888;BME280;3989;48.810;9.208;2022-09-01T05:41:17;98968.38;;;13.42;nan
7888;BME280;3989;48.810;9.208;2022-09-01T05:43:47;98979.41;;;13.53;nan
7888;BME280;3989;48.810;9.208;2022-09-01T05:46:18;98993.34;;;13.70;nan
7888;BME280;3989;48.810;9.208;2022-09-01T05:48:46;99006.09;;;13.83;nan
7888;BME280;3989;48.810;9.208;2022-09-01T05:51:16;99007.19;;;13.95;nan
7888;BME280;3989;48.810;9.208;2022-09-01T05:53:44;99009.34;;;14.06;nan
7888;BME280;3989;48.810;9.208;2022-09-01T05:56:11;99009.00;;;14.15;nan
7888;BME280;3989;48.810;9.208;2022-09-01T05:58:39;98998.13;;;14.24;nan
7888;BME280;3989;48.810;9.208;2022-09-01T06:01:08;99002.28;;;14.33;nan
7888;BME280;3989;48.810;9.208;2022-09-01T06:03:37;98992.53;;;14.25;nan
7888;BME280;3989;48.810;9.208;2022-09-01T06:06:05;99006.00;;;14.32;nan
7888;BME280;3989;48.810;9.208;2022-09-01T06:08:37;98972.25;;;14.16;nan
7888;BME280;3989;48.810;9.208;2022-09-01T06:11:07;98972.97;;;14.31;nan
7888;BME280;3989;48.810;9.208;2022-09-01T06:13:38;99006.00;;;14.59;nan
7888;BME280;3989;48.810;9.208;2022-09-01T06:16:06;98985.13;;;14.61;nan
7888;BME280;3989;48.810;9.208;2022-09-01T06:18:33;98944.34;;;14.45;nan
7888;BME280;3989;48.810;9.208;2022-09-01T06:21:02;98968.03;;;14.69;nan
7888;BME280;3989;48.810;9.208;2022-09-01T06:23:29;99002.25;;;15.01;nan
7888;BME280;3989;48.810;9.208;2022-09-01T06:25:57;98970.63;;;15.03;nan
7888;BME280;3989;48.810;9.208;2022-09-01T06:28:24;98986.19;;;15.28;nan
7888;BME280;3989;48.810;9.208;2022-09-01T06:30:53;99006.13;;;15.53;nan
7888;BME280;3989;48.810;9.208;2022-09-01T06:33:22;99010.69;;;15.59;nan
7888;BME280;3989;48.810;9.208;2022-09-01T06:35:51;98989.19;;;15.65;nan
7888;BME280;3989;48.810;9.208;2022-09-01T06:38:20;98996.22;;;15.86;nan
7888;BME280;3989;48.810;9.208;2022-09-01T06:40:47;99001.81;;;15.91;nan
7888;BME280;3989;48.810;9.208;2022-09-01T06:43:15;99000.97;;;15.97;nan
7888;BME280;3989;48.810;9.208;2022-09-01T06:45:44;98966.22;;;15.69;nan
7888;BME280;3989;48.810;9.208;2022-09-01T06:48:14;99000.38;;;15.95;nan
7888;BME280;3989;48.810;9.208;2022-09-01T06:50:42;99002.81;;;16.03;nan
7888;BME280;3989;48.810;9.208;2022-09-01T06:53:10;98982.34;;;15.89;nan
7888;BME280;3989;48.810;9.208;2022-09-01T06:55:41;99001.19;;;16.15;nan
7888;BME280;3989;48.810;9.208;2022-09-01T06:58:09;98970.72;;;16.21;nan
7888;BME280;3989;48.810;9.208;2022-09-01T07:00:41;99003.56;;;16.69;nan
7888;BME280;3989;48.810;9.208;2022-09-01T07:03:09;98996.13;;;17.09;nan
7888;BME280;3989;48.810;9.208;2022-09-01T07:05:38;99004.66;;;17.44;nan
7888;BME280;3989;48.810;9.208;2022-09-01T07:08:05;99012.56;;;17.39;nan
7888;BME280;3989;48.810;9.208;2022-09-01T07:10:39;99010.91;;;17.45;nan
7888;BME280;3989;48.810;9.208;2022-09-01T07:13:10;99007.09;;;17.52;nan
7888;BME280;3989;48.810;9.208;2022-09-01T07:15:38;99017.72;;;17.78;nan
7888;BME280;3989;48.810;9.208;2022-09-01T07:18:06;99023.53;;;18.31;nan
7888;BME280;3989;48.810;9.208;2022-09-01T07:20:35;99017.00;;;18.64;nan
7888;BME280;3989;48.810;9.208;2022-09-01T07:23:03;99019.44;;;18.65;nan
7888;BME280;3989;48.810;9.208;2022-09-01T07:25:30;99026.41;;;18.55;nan
7888;BME280;3989;48.810;9.208;2022-09-01T07:27:58;99028.56;;;18.46;nan
7888;BME280;3989;48.810;9.208;2022-09-01T07:30:25;99033.06;;;18.34;nan
7888;BME280;3989;48.810;9.208;2022-09-01T07:32:53;99034.81;;;18.47;nan
7888;BME280;3989;48.810;9.208;2022-09-01T07:35:21;99037.03;;;18.56;nan
7888;BME280;3989;48.810;9.208;2022-09-01T07:37:48;99034.53;;;18.55;nan
7888;BME280;3989;48.810;9.208;2022-09-01T07:40:17;99039.94;;;18.55;nan
7888;BME280;3989;48.810;9.208;2022-09-01T07:42:45;99040.41;;;18.45;nan
7888;BME280;3989;48.810;9.208;2022-09-01T07:45:14;99032.06;;;18.53;nan
7888;BME280;3989;48.810;9.208;2022-09-01T07:47:41;99025.38;;;18.56;nan
7888;BME280;3989;48.810;9.208;2022-09-01T07:50:10;99020.59;;;18.58;nan
7888;BME280;3989;48.810;9.208;2022-09-01T07:52:41;99033.50;;;18.74;nan
7888;BME280;3989;48.810;9.208;2022-09-01T07:55:09;99048.06;;;18.91;nan
7888;BME280;3989;48.810;9.208;2022-09-01T07:57:36;99051.75;;;19.15;nan
7888;BME280;3989;48.810;9.208;2022-09-01T08:00:04;99052.03;;;19.43;nan
7888;BME280;3989;48.810;9.208;2022-09-01T08:02:32;99045.66;;;19.67;nan
7888;BME280;3989;48.810;9.208;2022-09-01T08:04:58;99035.78;;;19.73;nan
7888;BME280;3989;48.810;9.208;2022-09-01T08:07:25;99043.50;;;19.99;nan
7888;BME280;3989;48.810;9.208;2022-09-01T08:09:53;99048.88;;;20.29;nan
7888;BME280;3989;48.810;9.208;2022-09-01T08:12:19;99048.50;;;20.49;nan
7888;BME280;3989;48.810;9.208;2022-09-01T08:14:46;99050.06;;;20.68;nan
7888;BME280;3989;48.810;9.208;2022-09-01T08:17:17;99053.78;;;20.78;nan
7888;BME280;3989;48.810;9.208;2022-09-01T08:19:44;99043.88;;;20.95;nan
7888;BME280;3989;48.810;9.208;2022-09-01T08:22:11;99049.50;;;21.17;nan
7888;BME280;3989;48.810;9.208;2022-09-01T08:24:37;99051.97;;;21.07;nan
7888;BME280;3989;48.810;9.208;2022-09-01T08:27:06;99056.28;;;20.80;nan
7888;BME280;3989;48.810;9.208;2022-09-01T08:29:33;99045.91;;;20.77;nan
7888;BME280;3989;48.810;9.208;2022-09-01T08:31:59;99059.44;;;20.88;nan
7888;BME280;3989;48.810;9.208;2022-09-01T08:34:27;99048.00;;;21.10;nan
7888;BME280;3989;48.810;9.208;2022-09-01T08:36:53;99047.03;;;21.04;nan
7888;BME280;3989;48.810;9.208;2022-09-01T08:39:20;99053.59;;;21.20;nan
7888;BME280;3989;48.810;9.208;2022-09-01T08:41:51;99054.28;;;21.38;nan
7888;BME280;3989;48.810;9.208;2022-09-01T08:44:30;99052.69;;;21.54;nan
7888;BME280;3989;48.810;9.208;2022-09-01T08:47:02;99050.72;;;21.66;nan
7888;BME280;3989;48.810;9.208;2022-09-01T08:49:33;99047.34;;;21.59;nan
7888;BME280;3989;48.810;9.208;2022-09-01T08:52:06;99034.66;;;21.48;nan
7888;BME280;3989;48.810;9.208;2022-09-01T08:54:41;99073.56;;;21.82;nan
7888;BME280;3989;48.810;9.208;2022-09-01T08:57:13;99063.00;;;21.97;nan
7888;BME280;3989;48.810;9.208;2022-09-01T08:59:43;99059.97;;;21.93;nan
7888;BME280;3989;48.810;9.208;2022-09-01T09:02:22;99070.06;;;21.98;nan
7888;BME280;3989;48.810;9.208;2022-09-01T09:05:03;99050.81;;;22.00;nan
7888;BME280;3989;48.810;9.208;2022-09-01T09:07:42;99065.72;;;22.14;nan
7888;BME280;3989;48.810;9.208;2022-09-01T09:10:17;99074.97;;;22.13;nan
7888;BME280;3989;48.810;9.208;2022-09-01T09:12:56;99075.94;;;22.23;nan
7888;BME280;3989;48.810;9.208;2022-09-01T09:15:38;99056.41;;;22.26;nan
7888;BME280;3989;48.810;9.208;2022-09-01T09:18:12;99069.78;;;22.44;nan
7888;BME280;3989;48.810;9.208;2022-09-01T09:20:42;99067.94;;;22.33;nan
7888;BME280;3989;48.810;9.208;2022-09-01T09:23:19;99033.41;;;21.84;nan
7888;BME280;3989;48.810;9.208;2022-09-01T09:25:47;99072.09;;;21.74;nan
7888;BME280;3989;48.810;9.208;2022-09-01T09:28:15;99035.63;;;21.42;nan
7888;BME280;3989;48.810;9.208;2022-09-01T09:30:45;99073.28;;;21.67;nan
7888;BME280;3989;48.810;9.208;2022-09-01T09:33:34;98949.34;;;21.04;nan
7888;BME280;3989;48.810;9.208;2022-09-01T09:36:19;98991.22;;;21.65;nan
7888;BME280;3989;48.810;9.208;2022-09-01T09:39:03;98959.78;;;21.69;nan
7888;BME280;3989;48.810;9.208;2022-09-01T09:41:30;99076.22;;;22.38;nan
7888;BME280;3989;48.810;9.208;2022-09-01T09:43:58;98933.53;;;21.58;nan
7888;BME280;3989;48.810;9.208;2022-09-01T09:46:33;99070.94;;;22.48;nan
7888;BME280;3989;48.810;9.208;2022-09-01T09:49:12;99066.63;;;22.52;nan
7888;BME280;3989;48.810;9.208;2022-09-01T09:51:45;99082.25;;;22.62;nan
7888;BME280;3989;48.810;9.208;2022-09-01T09:54:57;98980.47;;;22.20;nan
7888;BME280;3989;48.810;9.208;2022-09-01T09:57:53;98969.50;;;22.31;nan
7888;BME280;3989;48.810;9.208;2022-09-01T10:00:41;99064.03;;;22.96;nan
7888;BME280;3989;48.810;9.208;2022-09-01T10:03:38;98935.00;;;22.32;nan
7888;BME280;3989;48.810;9.208;2022-09-01T10:06:36;99018.06;;;22.61;nan
7888;BME280;3989;48.810;9.208;2022-09-01T10:09:14;99021.28;;;22.58;nan
7888;BME280;3989;48.810;9.208;2022-09-01T10:12:10;98821.84;;;21.21;nan
7888;BME280;3989;48.810;9.208;2022-09-01T10:15:16;98838.53;;;21.29;nan
7888;BME280;3989;48.810;9.208;2022-09-01T10:18:06;99068.09;;;23.15;nan
7888;BME280;3989;48.810;9.208;2022-09-01T10:20:55;99051.25;;;23.62;nan
7888;BME280;3989;48.810;9.208;2022-09-01T10:23:28;98970.22;;;23.04;nan
7888;BME280;3989;48.810;9.208;2022-09-01T10:26:00;99051.63;;;23.75;nan
7888;BME280;3989;48.810;9.208;2022-09-01T10:32:15;98925.56;;;22.78;nan
7888;BME280;3989;48.810;9.208;2022-09-01T10:35:21;98975.47;;;23.10;nan
7888;BME280;3989;48.810;9.208;2022-09-01T10:38:36;99052.03;;;23.89;nan
7888;BME280;3989;48.810;9.208;2022-09-01T10:46:08;99048.00;;;25.02;nan
7888;BME280;3989;48.810;9.208;2022-09-01T11:32:05;98946.06;;;22.47;nan
7888;BME280;3989;48.810;9.208;2022-09-01T11:34:40;99032.56;;;23.05;nan
7888;BME280;3989;48.810;9.208;2022-09-01T11:37:13;99005.78;;;23.40;nan
7888;BME280;3989;48.810;9.208;2022-09-01T11:39:42;99011.75;;;23.64;nan
7888;BME280;3989;48.810;9.208;2022-09-01T11:42:17;99009.84;;;23.65;nan
7888;BME280;3989;48.810;9.208;2022-09-01T11:44:49;99002.53;;;23.70;nan
7888;BME280;3989;48.810;9.208;2022-09-01T11:47:21;98961.69;;;23.43;nan
7888;BME280;3989;48.810;9.208;2022-09-01T11:49:54;98917.38;;;23.26;nan
7888;BME280;3989;48.810;9.208;2022-09-01T11:52:23;98997.75;;;23.56;nan
7888;BME280;3989;48.810;9.208;2022-09-01T11:54:50;98974.34;;;23.06;nan
7888;BME280;3989;48.810;9.208;2022-09-01T11:57:20;99023.75;;;22.76;nan
7888;BME280;3989;48.810;9.208;2022-09-01T11:59:48;98948.50;;;22.10;nan
7888;BME280;3989;48.810;9.208;2022-09-01T12:02:22;98987.50;;;22.16;nan
7888;BME280;3989;48.810;9.208;2022-09-01T12:04:50;98802.78;;;20.87;nan
7888;BME280;3989;48.810;9.208;2022-09-01T12:07:36;98997.38;;;22.05;nan
7888;BME280;3989;48.810;9.208;2022-09-01T12:10:12;98993.59;;;22.06;nan
7888;BME280;3989;48.810;9.208;2022-09-01T12:12:40;98990.59;;;22.08;nan
7888;BME280;3989;48.810;9.208;2022-09-01T12:15:10;98898.88;;;21.65;nan
7888;BME280;3989;48.810;9.208;2022-09-01T12:17:43;98996.22;;;22.73;nan
7888;BME280;3989;48.810;9.208;2022-09-01T12:20:25;98988.31;;;23.15;nan
7888;BME280;3989;48.810;9.208;2022-09-01T12:22:53;98990.25;;;23.41;nan
7888;BME280;3989;48.810;9.208;2022-09-01T12:25:22;98913.72;;;23.16;nan
7888;BME280;3989;48.810;9.208;2022-09-01T12:27:50;98974.03;;;23.83;nan
7888;BME280;3989;48.810;9.208;2022-09-01T12:30:18;98976.94;;;24.03;nan
7888;BME280;3989;48.810;9.208;2022-09-01T12:32:50;98919.75;;;23.76;nan
7888;BME280;3989;48.810;9.208;2022-09-01T12:35:20;98965.41;;;24.23;nan
7888;BME280;3989;48.810;9.208;2022-09-01T12:37:48;98973.41;;;24.39;nan
7888;BME280;3989;48.810;9.208;2022-09-01T12:40:24;98989.28;;;24.52;nan
7888;BME280;3989;48.810;9.208;2022-09-01T12:42:52;98971.56;;;24.50;nan
7888;BME280;3989;48.810;9.208;2022-09-01T12:45:39;98923.09;;;23.88;nan
7888;BME280;3989;48.810;9.208;2022-09-01T12:51:02;98863.50;;;23.60;54.45
7888;BME280;3989;48.810;9.208;2022-09-01T12:53:32;98975.25;;;24.34;54.43
7888;BME280;3989;48.810;9.208;2022-09-01T12:56:25;98965.47;;;24.33;52.99
7888;BME280;3989;48.810;9.208;2022-09-01T12:59:04;98959.19;;;24.32;54.53
7888;BME280;3989;48.810;9.208;2022-09-01T13:01:32;98964.81;;;24.21;55.26
7888;BME280;3989;48.810;9.208;2022-09-01T13:04:09;98930.69;;;23.81;56.83
7888;BME280;3989;48.810;9.208;2022-09-01T13:06:38;98854.75;;;23.26;57.06
7888;BME280;3989;48.810;9.208;2022-09-01T13:09:05;98787.91;;;22.82;57.72
7888;BME280;3989;48.810;9.208;2022-09-01T13:11:32;98823.81;;;23.11;57.90
7888;BME280;3989;48.810;9.208;2022-09-01T13:13:59;98887.09;;;23.49;56.71
7888;BME280;3989;48.810;9.208;2022-09-01T13:16:25;98792.72;;;23.01;57.57
7888;BME280;3989;48.810;9.208;2022-09-01T13:18:52;98818.06;;;23.07;58.16
7888;BME280;3989;48.810;9.208;2022-09-01T13:21:19;98807.91;;;22.97;59.21
7888;BME280;3989;48.810;9.208;2022-09-01T13:23:47;98818.88;;;23.02;60.44
7888;BME280;3989;48.810;9.208;2022-09-01T13:26:14;98947.69;;;23.93;59.79
7888;BME280;3989;48.810;9.208;2022-09-01T13:28:41;98966.88;;;24.09;59.49
7888;BME280;3989;48.810;9.208;2022-09-01T13:31:07;98905.34;;;23.81;58.14
7888;BME280;3989;48.810;9.208;2022-09-01T13:33:35;98870.81;;;23.55;57.01
7888;BME280;3989;48.810;9.208;2022-09-01T13:36:03;98891.53;;;23.92;55.97
7888;BME280;3989;48.810;9.208;2022-09-01T13:38:30;98919.16;;;24.48;53.77
7888;BME280;3989;48.810;9.208;2022-09-01T13:40:59;98929.72;;;24.91;52.18
7888;BME280;3989;48.810;9.208;2022-09-01T13:43:26;98814.19;;;24.71;50.90
7888;BME280;3989;48.810;9.208;2022-09-01T13:45:53;98934.31;;;25.78;48.40
7888;BME280;3989;48.810;9.208;2022-09-01T13:48:20;98730.41;;;24.76;46.37
7888;BME280;3989;48.810;9.208;2022-09-01T13:50:49;98900.66;;;26.03;46.63
7888;BME280;3989;48.810;9.208;2022-09-01T13:53:17;98953.38;;;26.44;45.92
7888;BME280;3989;48.810;9.208;2022-09-01T13:55:44;98941.94;;;26.06;45.65
7888;BME280;3989;48.810;9.208;2022-09-01T13:58:12;98916.19;;;25.22;48.28
7888;BME280;3989;48.810;9.208;2022-09-01T14:00:42;98929.53;;;25.08;50.20
7888;BME280;3989;48.810;9.208;2022-09-01T14:03:11;98939.06;;;25.11;49.82
7888;BME280;3989;48.810;9.208;2022-09-01T14:05:40;98851.84;;;24.59;50.15
7888;BME280;3989;48.810;9.208;2022-09-01T14:08:09;98910.44;;;25.28;49.88
7888;BME280;3989;48.810;9.208;2022-09-01T14:10:39;98928.56;;;25.70;49.24
7888;BME280;3989;48.810;9.208;2022-09-01T14:13:07;98934.84;;;25.80;48.18
7888;BME280;3989;48.810;9.208;2022-09-01T14:15:35;98777.16;;;25.00;48.85
7888;BME280;3989;48.810;9.208;2022-09-01T14:18:02;98900.66;;;25.83;47.77
7888;BME280;3989;48.810;9.208;2022-09-01T14:20:32;98868.69;;;25.83;47.88
7888;BME280;3989;48.810;9.208;2022-09-01T14:23:00;98794.34;;;25.66;46.53
7888;BME280;3989;48.810;9.208;2022-09-01T14:25:29;98919.22;;;26.36;46.47
7888;BME280;3989;48.810;9.208;2022-09-01T14:27:57;98876.91;;;25.78;46.78
7888;BME280;3989;48.810;9.208;2022-09-01T14:30:26;98920.06;;;25.51;48.51
7888;BME280;3989;48.810;9.208;2022-09-01T14:32:54;98898.88;;;24.86;49.51
7888;BME280;3989;48.810;9.208;2022-09-01T14:35:23;98866.66;;;24.21;50.71
7888;BME280;3989;48.810;9.208;2022-09-01T14:37:50;98891.63;;;24.08;51.61
7888;BME280;3989;48.810;9.208;2022-09-01T14:40:19;98727.56;;;23.27;52.28
7888;BME280;3989;48.810;9.208;2022-09-01T14:42:48;98700.81;;;23.56;50.51
7888;BME280;3989;48.810;9.208;2022-09-01T14:45:17;98763.94;;;24.51;47.16
7888;BME280;3989;48.810;9.208;2022-09-01T14:47:45;98897.38;;;25.76;46.41
7888;BME280;3989;48.810;9.208;2022-09-01T14:50:14;98849.41;;;26.44;43.88
7888;BME280;3989;48.810;9.208;2022-09-01T14:52:41;98901.06;;;28.74;40.40
7888;BME280;3989;48.810;9.208;2022-09-01T14:55:09;98900.41;;;30.40;37.95
7888;BME280;3989;48.810;9.208;2022-09-01T14:57:36;98907.91;;;31.96;35.07
7888;BME280;3989;48.810;9.208;2022-09-01T15:00:03;98865.91;;;32.87;32.78